KBTV/BTV METAR and TAF weather

Enter ICAO airport designator
Station Type Date Time Source
KBTV METAR 2021/05/11 22:54 UTC NOAA

KBTV 112254Z 28006KT 10SM SCT060 BKN075 11/M01 A2994 RMK AO2 SLP139 T01061006


Station Type Date Time Source
KBTV Decoded METAR 2021/05/11 22:54 UTC NOAA

BURLINGTON INTERNATIONAL, VT, United States (KBTV) 44-28N 73-09W 105M
May 11, 2021 - 06:54 PM EDT / 2021.05.11 2254 UTC
Wind: from the W (280 degrees) at 7 MPH (6 KT):0
Visibility: 10 mile(s):0
Sky conditions: mostly cloudy
Temperature: 51.1 F (10.6 C)
Dew Point: 30.9 F (-0.6 C)
Relative Humidity: 45%
Pressure (altimeter): 29.94 in. Hg (1013 hPa)
ob: KBTV 112254Z 28006KT 10SM SCT060 BKN075 11/M01 A2994 RMK AO2 SLP139 T01061006
cycle: 23

Station Type Date Time Source
KBTV TAF 2021/05/11 18:39 UTC NOAA

TAF KBTV 111737Z 1118/1218 28011G18KT P6SM VCSH BKN060
FM120000 27008KT P6SM VCSH BKN045
FM120400 VRB03KT P6SM BKN020
FM121300 33007KT P6SM BKN040

Example: see airport list